createdAt,value
2022-07-26T00:01:10.236Z,23.40
2022-07-26T00:05:08.311Z,23.40
2022-07-26T00:09:05.932Z,23.20
2022-07-26T00:13:03.266Z,23.20
2022-07-26T00:17:00.416Z,23.10
2022-07-26T00:21:40.704Z,23.00
2022-07-26T00:26:24.830Z,23.00
2022-07-26T00:30:40.820Z,23.00
2022-07-26T00:34:37.872Z,22.90
2022-07-26T00:38:35.157Z,22.80
2022-07-26T00:42:32.298Z,22.80
2022-07-26T00:46:29.438Z,22.80
2022-07-26T00:50:26.594Z,22.80
2022-07-26T00:54:23.732Z,22.80
2022-07-26T00:58:20.779Z,22.70
2022-07-26T01:02:19.024Z,22.70
2022-07-26T01:06:22.784Z,22.60
2022-07-26T01:10:23.776Z,22.60
2022-07-26T01:14:23.608Z,22.60
2022-07-26T01:18:20.712Z,22.60
2022-07-26T01:22:17.682Z,22.60
2022-07-26T01:26:14.633Z,22.50
2022-07-26T01:30:13.025Z,22.50
2022-07-26T01:34:10.379Z,22.50
2022-07-26T01:38:07.697Z,22.40
2022-07-26T01:42:05.365Z,22.40
2022-07-26T01:46:03.763Z,22.30
2022-07-26T01:50:00.826Z,22.20
2022-07-26T01:53:57.881Z,22.10
2022-07-26T01:57:57.180Z,22.10
2022-07-26T02:01:54.287Z,22.00
2022-07-26T02:05:51.311Z,21.90
2022-07-26T02:09:49.510Z,21.80
2022-07-26T02:13:51.263Z,21.80
2022-07-26T02:17:49.966Z,21.70
2022-07-26T02:21:46.913Z,21.70
2022-07-26T02:25:43.973Z,21.60
2022-07-26T02:29:41.030Z,21.50
2022-07-26T02:33:38.032Z,21.50
2022-07-26T02:37:36.613Z,21.50
2022-07-26T02:41:41.244Z,21.40
2022-07-26T02:45:39.076Z,21.40
2022-07-26T02:49:36.073Z,21.30
2022-07-26T02:53:34.930Z,21.30
2022-07-26T02:57:35.102Z,21.20
2022-07-26T03:01:43.426Z,21.20
2022-07-26T03:05:40.842Z,21.00
2022-07-26T03:09:37.884Z,21.00
2022-07-26T03:13:34.920Z,21.00
2022-07-26T03:17:32.299Z,21.00
2022-07-26T03:21:29.349Z,21.00
2022-07-26T03:25:26.470Z,20.90
2022-07-26T03:29:23.442Z,20.90
2022-07-26T03:33:20.398Z,20.90
2022-07-26T03:37:18.547Z,20.90
2022-07-26T03:41:15.531Z,20.90
2022-07-26T03:45:13.182Z,20.90
2022-07-26T03:49:14.649Z,20.90
2022-07-26T03:53:13.800Z,20.90
2022-07-26T03:57:10.807Z,20.90
2022-07-26T04:01:07.842Z,21.00
2022-07-26T04:05:05.421Z,21.00
2022-07-26T04:09:03.547Z,21.00
2022-07-26T04:13:02.316Z,21.00
2022-07-26T04:16:59.428Z,21.10
2022-07-26T04:20:56.608Z,21.10
2022-07-26T04:24:53.660Z,21.10
2022-07-26T04:28:50.946Z,21.10
2022-07-26T04:32:47.956Z,21.10
2022-07-26T04:36:44.935Z,21.10
2022-07-26T04:40:42.041Z,21.10
2022-07-26T04:44:40.289Z,21.10
2022-07-26T04:48:38.341Z,21.10
2022-07-26T04:52:35.484Z,21.20
2022-07-26T04:56:32.481Z,21.10
2022-07-26T05:00:29.564Z,21.20
2022-07-26T05:04:26.696Z,21.20
2022-07-26T05:08:23.687Z,21.10
2022-07-26T05:12:20.668Z,21.20
2022-07-26T05:16:17.962Z,21.30
2022-07-26T05:20:17.234Z,21.40
2022-07-26T05:24:14.374Z,21.50
2022-07-26T05:28:11.806Z,21.60
2022-07-26T05:32:09.170Z,21.70
2022-07-26T05:36:06.648Z,21.70
2022-07-26T05:40:07.904Z,21.70
2022-07-26T05:44:05.421Z,21.90
2022-07-26T05:48:02.783Z,22.10
2022-07-26T05:52:01.416Z,22.30
2022-07-26T05:55:58.580Z,22.50
2022-07-26T05:59:55.596Z,22.60
2022-07-26T06:03:52.663Z,22.70
2022-07-26T06:07:49.712Z,22.70
2022-07-26T06:11:46.931Z,22.90
2022-07-26T06:15:45.861Z,23.20
2022-07-26T06:19:47.583Z,23.50
2022-07-26T06:23:44.962Z,23.80
2022-07-26T06:27:41.920Z,23.70
2022-07-26T06:31:38.985Z,23.80
2022-07-26T06:35:39.263Z,24.00
2022-07-26T06:39:36.240Z,24.10
2022-07-26T06:43:33.176Z,23.90
2022-07-26T06:47:30.236Z,23.90
2022-07-26T06:51:27.696Z,24.00
2022-07-26T06:55:24.706Z,24.00
2022-07-26T06:59:21.656Z,24.10
2022-07-26T07:03:18.726Z,24.10
2022-07-26T07:07:15.715Z,24.20
2022-07-26T07:11:12.702Z,24.30
2022-07-26T07:15:12.288Z,24.30
2022-07-26T07:19:09.331Z,24.30
2022-07-26T07:23:07.175Z,23.80
2022-07-26T07:27:04.983Z,23.60
2022-07-26T07:31:03.742Z,23.80
2022-07-26T07:35:00.927Z,23.90
2022-07-26T07:38:59.203Z,23.60
2022-07-26T07:42:59.461Z,23.40
2022-07-26T07:46:56.547Z,23.20
2022-07-26T07:50:53.937Z,23.00
2022-07-26T07:54:50.986Z,23.00
2022-07-26T07:58:48.116Z,23.20
2022-07-26T08:02:48.535Z,23.40
2022-07-26T08:06:50.454Z,23.90
2022-07-26T08:10:51.966Z,24.30
2022-07-26T08:14:49.751Z,24.90
2022-07-26T08:18:57.047Z,25.90
2022-07-26T08:23:03.720Z,26.40
2022-07-26T08:27:00.883Z,27.10
2022-07-26T08:30:57.982Z,27.30
2022-07-26T08:34:55.042Z,27.50
2022-07-26T08:39:12.057Z,27.30
2022-07-26T08:43:11.194Z,27.40
2022-07-26T08:47:12.414Z,27.50
2022-07-26T08:51:11.068Z,27.60
2022-07-26T08:55:09.193Z,27.60
2022-07-26T08:59:20.262Z,27.70
2022-07-26T09:03:26.759Z,28.20
2022-07-26T09:07:23.849Z,28.70
2022-07-26T09:11:32.608Z,28.30
2022-07-26T09:15:29.770Z,27.50
2022-07-26T09:19:27.620Z,26.40
2022-07-26T09:23:24.605Z,25.70
2022-07-26T09:27:26.456Z,25.40
2022-07-26T09:31:25.265Z,25.00
2022-07-26T09:35:51.399Z,24.50
2022-07-26T09:40:02.057Z,24.80
2022-07-26T09:44:04.172Z,27.30
2022-07-26T09:48:03.061Z,28.90
2022-07-26T09:52:00.096Z,30.40
2022-07-26T09:55:57.541Z,29.10
2022-07-26T09:59:55.360Z,27.60
2022-07-26T10:03:52.347Z,26.20
2022-07-26T10:07:51.979Z,25.40
2022-07-26T10:12:03.332Z,24.80
2022-07-26T10:16:00.502Z,24.50
2022-07-26T10:20:04.238Z,24.70
2022-07-26T10:24:26.682Z,26.10
2022-07-26T10:28:27.452Z,28.20
2022-07-26T10:32:24.628Z,29.20
2022-07-26T10:36:33.518Z,30.50
2022-07-26T10:40:31.672Z,31.20
2022-07-26T10:44:45.329Z,29.70
2022-07-26T10:49:08.729Z,28.10
2022-07-26T10:53:07.534Z,28.40
2022-07-26T10:57:04.771Z,28.20
2022-07-26T11:01:05.130Z,28.30
2022-07-26T11:05:13.425Z,29.50
2022-07-26T11:09:12.679Z,30.60
2022-07-26T11:13:23.878Z,31.20
2022-07-26T11:17:29.920Z,31.30
2022-07-26T11:21:27.493Z,31.70
2022-07-26T11:25:24.514Z,30.50
2022-07-26T11:29:39.055Z,28.90
2022-07-26T11:33:45.840Z,27.90
2022-07-26T11:38:07.857Z,27.00
2022-07-26T11:42:15.171Z,27.90
2022-07-26T11:46:12.534Z,29.70
2022-07-26T11:50:14.363Z,32.00
2022-07-26T11:54:15.594Z,31.40
2022-07-26T11:58:12.706Z,29.80
2022-07-26T12:02:11.378Z,28.30
2022-07-26T12:06:16.270Z,28.10
2022-07-26T12:10:16.811Z,29.70
2022-07-26T12:14:18.341Z,29.70
2022-07-26T12:18:30.952Z,29.50
2022-07-26T12:22:27.934Z,30.50
2022-07-26T12:26:28.701Z,30.40
2022-07-26T12:30:25.861Z,29.10
2022-07-26T12:34:28.005Z,28.20
2022-07-26T12:38:40.765Z,28.30
2022-07-26T12:42:44.417Z,30.30
2022-07-26T12:46:41.530Z,30.70
2022-07-26T12:50:39.013Z,31.50
2022-07-26T12:54:36.051Z,32.10
2022-07-26T12:58:33.106Z,32.70
2022-07-26T13:02:30.140Z,33.30
2022-07-26T13:06:27.331Z,33.70
2022-07-26T13:10:34.060Z,34.70
2022-07-26T13:14:36.936Z,34.10
2022-07-26T13:18:33.904Z,34.10
2022-07-26T13:22:30.894Z,33.70
2022-07-26T13:26:28.202Z,32.10
2022-07-26T13:30:25.274Z,30.80
2022-07-26T13:34:23.731Z,30.20
2022-07-26T13:38:20.794Z,30.20
2022-07-26T13:42:19.410Z,30.30
2022-07-26T13:46:16.734Z,31.10
2022-07-26T13:50:13.741Z,32.60
2022-07-26T13:54:13.682Z,33.20
2022-07-26T13:58:11.088Z,32.80
2022-07-26T14:02:08.379Z,31.40
2022-07-26T14:06:05.453Z,31.50
2022-07-26T14:10:02.478Z,31.20
2022-07-26T14:14:01.926Z,30.10
2022-07-26T14:17:59.020Z,29.40
2022-07-26T14:22:00.018Z,28.90
2022-07-26T14:25:57.505Z,28.70
2022-07-26T14:29:54.472Z,30.40
2022-07-26T14:33:51.590Z,31.70
2022-07-26T14:37:48.612Z,32.20
2022-07-26T14:41:45.754Z,31.30
2022-07-26T14:45:42.914Z,30.80
2022-07-26T14:49:40.086Z,30.00
2022-07-26T14:53:37.218Z,28.60
2022-07-26T14:57:34.976Z,28.40
2022-07-26T15:01:36.767Z,30.10
2022-07-26T15:05:33.802Z,32.10
2022-07-26T15:09:30.761Z,32.70
2022-07-26T15:13:27.888Z,33.00
2022-07-26T15:17:25.016Z,33.10
2022-07-26T15:21:22.093Z,34.10
2022-07-26T15:25:19.078Z,34.40
2022-07-26T15:29:16.131Z,34.40
2022-07-26T15:33:14.530Z,34.50
2022-07-26T15:37:11.781Z,34.10
2022-07-26T15:41:08.815Z,32.70
2022-07-26T15:45:09.339Z,30.40
2022-07-26T15:49:07.614Z,30.10
2022-07-26T15:53:04.842Z,31.40
2022-07-26T15:57:01.866Z,32.70
2022-07-26T16:00:58.885Z,32.90
2022-07-26T16:04:55.937Z,31.70
2022-07-26T16:09:15.201Z,30.90
2022-07-26T16:13:09.906Z,31.40
2022-07-26T16:17:06.919Z,31.90
2022-07-26T16:21:04.236Z,32.00
2022-07-26T16:25:01.326Z,32.00
2022-07-26T16:28:59.409Z,31.30
2022-07-26T16:32:56.343Z,30.90
2022-07-26T16:36:54.281Z,30.70
2022-07-26T16:40:51.561Z,31.00
2022-07-26T16:44:49.050Z,31.70
2022-07-26T16:48:46.164Z,32.30
2022-07-26T16:52:43.280Z,32.00
2022-07-26T16:56:40.328Z,30.40
2022-07-26T17:00:37.512Z,29.20
2022-07-26T17:04:35.761Z,29.20
2022-07-26T17:08:32.818Z,30.30
2022-07-26T17:12:29.834Z,31.40
2022-07-26T17:16:27.060Z,31.90
2022-07-26T17:20:24.410Z,32.50
2022-07-26T17:24:21.544Z,32.50
2022-07-26T17:28:18.622Z,32.20
2022-07-26T17:32:15.639Z,31.90
2022-07-26T17:36:19.826Z,31.70
2022-07-26T17:40:17.074Z,30.50
2022-07-26T17:44:14.143Z,28.80
2022-07-26T17:48:11.206Z,27.40
2022-07-26T17:52:08.966Z,26.90
2022-07-26T17:56:06.124Z,26.60
2022-07-26T18:00:06.945Z,26.40
2022-07-26T18:04:04.248Z,26.60
2022-07-26T18:08:01.892Z,26.80
2022-07-26T18:11:58.965Z,26.90
2022-07-26T18:15:56.672Z,26.50
2022-07-26T18:19:53.851Z,26.10
2022-07-26T18:24:15.214Z,25.70
2022-07-26T18:28:09.616Z,25.40
2022-07-26T18:32:06.901Z,25.00
2022-07-26T18:36:04.312Z,24.60
2022-07-26T18:40:01.977Z,24.40
2022-07-26T18:43:59.168Z,24.20
2022-07-26T18:47:56.216Z,23.90
2022-07-26T18:51:53.543Z,23.70
2022-07-26T18:55:51.256Z,23.50
2022-07-26T18:59:48.282Z,23.30
2022-07-26T19:03:45.537Z,23.10
2022-07-26T19:07:43.396Z,22.90
2022-07-26T19:11:40.370Z,22.80
2022-07-26T19:15:37.382Z,22.60
2022-07-26T19:19:34.311Z,22.50
2022-07-26T19:23:31.365Z,22.40
2022-07-26T19:27:28.591Z,22.40
2022-07-26T19:31:25.636Z,22.40
2022-07-26T19:35:22.732Z,22.30
2022-07-26T19:39:20.902Z,22.20
2022-07-26T19:43:17.909Z,22.10
2022-07-26T19:47:16.040Z,22.00
2022-07-26T19:51:13.171Z,21.90
2022-07-26T19:55:10.432Z,21.80
2022-07-26T19:59:07.714Z,21.70
2022-07-26T20:03:04.939Z,21.50
2022-07-26T20:07:02.600Z,21.30
2022-07-26T20:10:59.594Z,21.20
2022-07-26T20:14:56.767Z,21.10
2022-07-26T20:18:54.030Z,20.90
2022-07-26T20:22:51.054Z,20.80
2022-07-26T20:26:48.148Z,20.60
2022-07-26T20:30:48.347Z,20.50
2022-07-26T20:34:45.753Z,20.30
2022-07-26T20:38:42.744Z,20.20
2022-07-26T20:42:41.911Z,20.10
2022-07-26T20:46:41.867Z,20.00
2022-07-26T20:50:38.862Z,19.90
2022-07-26T20:54:35.918Z,19.80
2022-07-26T20:58:33.190Z,19.70
2022-07-26T21:02:30.204Z,19.50
2022-07-26T21:06:29.228Z,19.40
2022-07-26T21:10:30.031Z,19.40
2022-07-26T21:14:27.024Z,19.40
2022-07-26T21:18:25.914Z,19.20
2022-07-26T21:22:22.892Z,19.20
2022-07-26T21:26:20.084Z,19.10
2022-07-26T21:30:17.058Z,19.00
2022-07-26T21:34:14.458Z,19.00
2022-07-26T21:38:12.027Z,19.00
2022-07-26T21:42:09.031Z,18.90
2022-07-26T21:46:11.888Z,18.80
2022-07-26T21:50:10.094Z,18.70
2022-07-26T21:54:07.262Z,18.60
2022-07-26T21:58:04.295Z,18.50
2022-07-26T22:02:01.513Z,18.40
2022-07-26T22:05:59.146Z,18.40
2022-07-26T22:09:56.121Z,18.30
2022-07-26T22:13:53.202Z,18.20
2022-07-26T22:17:50.318Z,18.10
2022-07-26T22:21:47.272Z,18.00
2022-07-26T22:25:44.747Z,17.90
2022-07-26T22:29:41.722Z,17.80
2022-07-26T22:33:38.773Z,17.80
2022-07-26T22:37:35.983Z,17.70
2022-07-26T22:41:38.466Z,17.60
2022-07-26T22:45:48.706Z,17.60
2022-07-26T22:49:45.791Z,17.50
2022-07-26T22:53:42.763Z,17.40
2022-07-26T22:57:44.704Z,17.40
2022-07-26T23:01:41.761Z,17.30
2022-07-26T23:05:46.382Z,17.30
2022-07-26T23:09:44.743Z,17.20
2022-07-26T23:13:41.755Z,17.10
2022-07-26T23:17:39.351Z,17.00
2022-07-26T23:21:36.403Z,16.90
2022-07-26T23:25:34.244Z,16.80
2022-07-26T23:29:31.810Z,16.70
2022-07-26T23:33:53.534Z,16.70
2022-07-26T23:37:45.712Z,16.60
2022-07-26T23:41:42.759Z,16.50
2022-07-26T23:45:39.721Z,16.40
2022-07-26T23:49:36.717Z,16.30
2022-07-26T23:53:33.750Z,16.30
2022-07-26T23:57:30.698Z,16.20
